Time;durP1;ratioP1;P1;durP2;ratioP2;P2;SDS_P1;SDS_P2;PMS_P1;PMS_P2;Temp;Humidity;BMP_temperature;BMP_pressure;BME280_temperature;BME280_humidity;BME280_pressure;Samples;Min_cycle;Max_cycle;Signal;HPM_P1;HPM_P2
2021/09/11 16:20:26;;;;;;;;;2.00;2.00;;;;;22.63;47.05;101330.28;5079821;27;45544;-74
2021/09/11 16:22:52;;;;;;;;;3.00;2.00;;;;;22.73;46.71;101323.91;4950716;28;45660;-75
2021/09/11 16:25:17;;;;;;;;;2.25;2.25;;;;;22.87;46.38;101334.28;4949799;28;48207;-75
2021/09/11 16:27:43;;;;;;;;;2.00;2.00;;;;;23.02;45.73;101336.66;4950702;28;45511;-73
2021/09/11 16:30:09;;;;;;;;;2.00;2.00;;;;;23.12;45.56;101336.47;5052592;28;45365;-69
2021/09/11 16:32:35;;;;;;;;;3.25;1.25;;;;;23.20;45.45;101331.94;5019382;28;45731;-71
2021/09/11 16:35:00;;;;;;;;;2.00;2.00;;;;;23.23;44.79;101317.75;4966884;28;47986;-70
2021/09/11 16:37:26;;;;;;;;;1.00;1.00;;;;;23.34;45.18;101321.97;5000225;28;45432;-73
2021/09/11 16:39:51;;;;;;;;;2.00;2.00;;;;;23.41;44.62;101316.50;4989063;28;52100;-72
2021/09/11 16:42:18;;;;;;;;;3.25;2.00;;;;;23.46;44.78;101326.13;5003554;28;49474;-71
2021/09/11 16:44:45;;;;;;;;;1.50;1.50;;;;;23.53;44.35;101317.16;4998007;28;45718;-80
2021/09/11 16:47:10;;;;;;;;;3.25;2.00;;;;;23.57;44.49;101320.59;4998616;28;45519;-78
2021/09/11 16:49:35;;;;;;;;;1.25;1.25;;;;;23.60;44.30;101317.03;5005252;28;46135;-75
2021/09/11 16:52:01;;;;;;;;;3.50;3.00;;;;;23.62;43.84;101320.53;4978187;28;45520;-75
2021/09/11 16:54:27;;;;;;;;;2.25;2.00;;;;;23.66;44.39;101324.88;4989565;28;45998;-86
2021/09/11 16:56:52;;;;;;;;;3.00;1.75;;;;;23.68;43.79;101320.38;4994211;28;45613;-82
2021/09/11 16:59:17;;;;;;;;;2.25;2.00;;;;;23.70;44.46;101315.94;5004084;28;45462;-74
2021/09/11 17:01:43;;;;;;;;;5.50;4.00;;;;;23.70;43.70;101322.09;4996775;28;50524;-84
2021/09/11 17:04:08;;;;;;;;;1.50;1.50;;;;;23.69;43.89;101327.44;4999591;28;53295;-75
2021/09/11 17:06:34;;;;;;;;;2.00;2.00;;;;;23.68;43.33;101321.25;4995257;28;45253;-72
2021/09/11 17:09:00;;;;;;;;;2.75;2.00;;;;;23.67;43.69;101322.19;4992652;28;46740;-76
2021/09/11 17:11:25;;;;;;;;;4.00;2.25;;;;;23.66;43.46;101316.91;4950709;28;45337;-80
2021/09/11 17:13:50;;;;;;;;;1.75;1.00;;;;;23.65;44.12;101326.63;5034172;28;54938;-77
2021/09/11 17:16:16;;;;;;;;;1.25;1.25;;;;;23.62;43.79;101318.75;4964576;28;51617;-79
2021/09/11 17:18:41;;;;;;;;;2.75;2.75;;;;;23.63;43.95;101320.50;4948827;28;60318;-80
2021/09/11 17:21:07;;;;;;;;;4.25;2.25;;;;;23.60;43.58;101323.19;4949769;28;53378;-79
2021/09/11 17:23:32;;;;;;;;;3.00;1.00;;;;;23.62;43.87;101326.69;4993103;28;46675;-78
2021/09/11 17:25:57;;;;;;;;;2.50;2.00;;;;;23.62;43.67;101323.19;4996884;28;45442;-75
2021/09/11 17:28:23;;;;;;;;;2.00;2.00;;;;;23.61;43.62;101324.94;4993718;28;45999;-77
2021/09/11 17:30:49;;;;;;;;;2.75;2.00;;;;;23.60;43.16;101317.03;4985667;28;45527;-77
2021/09/11 17:33:14;;;;;;;;;4.00;2.00;;;;;23.58;43.77;101317.06;4982579;28;45439;-77
2021/09/11 17:35:39;;;;;;;;;2.00;1.00;;;;;23.55;43.63;101317.13;4983299;28;45741;-75
2021/09/11 17:38:05;;;;;;;;;3.75;1.25;;;;;23.51;43.17;101321.63;4992634;28;46244;-76
2021/09/11 17:40:30;;;;;;;;;5.25;3.50;;;;;23.50;42.97;101327.81;4937614;28;45444;-77
2021/09/11 17:42:56;;;;;;;;;4.00;2.25;;;;;23.46;43.63;101331.44;4936764;28;45533;-78
2021/09/11 17:45:22;;;;;;;;;3.75;2.50;;;;;23.43;44.08;101330.66;4938660;28;45532;-77
2021/09/11 17:47:49;;;;;;;;;2.00;2.00;;;;;23.41;43.83;101327.13;4938045;28;46298;-76
2021/09/11 17:50:15;;;;;;;;;3.25;2.00;;;;;23.34;44.07;101323.72;4986550;28;45319;-77
2021/09/11 17:52:41;;;;;;;;;3.00;2.00;;;;;23.33;43.81;101328.16;4936431;28;45434;-76
2021/09/11 17:55:06;;;;;;;;;3.00;3.00;;;;;23.28;43.74;101327.38;4938010;28;45409;-76
2021/09/11 17:57:32;;;;;;;;;7.00;4.00;;;;;23.24;44.34;101332.78;5020082;28;46155;-78
2021/09/11 17:59:57;;;;;;;;;3.00;2.00;;;;;23.18;44.06;101328.47;5019671;28;45546;-78
2021/09/11 18:02:23;;;;;;;;;5.75;2.50;;;;;23.13;44.39;101331.19;4936842;28;45475;-77
2021/09/11 18:04:48;;;;;;;;;3.50;3.00;;;;;23.10;44.55;101343.63;4937752;28;45374;-77
2021/09/11 18:07:14;;;;;;;;;3.00;2.00;;;;;23.06;44.14;101340.13;4936442;28;61529;-72
2021/09/11 18:09:40;;;;;;;;;3.00;3.00;;;;;23.02;44.16;101338.44;4954674;28;45442;-74
2021/09/11 18:12:05;;;;;;;;;5.25;2.50;;;;;23.01;44.79;101341.97;4952855;28;45611;-72
2021/09/11 18:14:31;;;;;;;;;3.00;2.75;;;;;22.98;44.62;101331.44;4991638;28;45377;-74
2021/09/11 18:16:57;;;;;;;;;3.00;2.00;;;;;22.95;44.30;101334.16;4970304;28;60661;-81
2021/09/11 18:19:23;;;;;;;;;2.75;2.75;;;;;22.92;44.21;101340.38;4943689;28;45569;-71
2021/09/11 18:21:48;;;;;;;;;3.25;3.25;;;;;22.87;44.58;101339.56;4949887;28;45462;-74
2021/09/11 18:24:14;;;;;;;;;3.00;3.00;;;;;22.84;44.51;101347.59;5003071;28;45560;-72
2021/09/11 18:26:39;;;;;;;;;3.25;3.00;;;;;22.80;44.72;101346.75;4935850;28;45441;-73
2021/09/11 18:29:05;;;;;;;;;3.00;3.00;;;;;22.77;44.57;101349.47;4947049;28;60763;-74
2021/09/11 18:31:30;;;;;;;;;4.50;4.00;;;;;22.68;44.69;101345.19;4950301;28;45818;-72
2021/09/11 18:33:56;;;;;;;;;4.50;3.00;;;;;22.67;44.88;101362.00;4961925;28;45266;-73
2021/09/11 18:36:21;;;;;;;;;3.00;2.00;;;;;22.64;44.82;101359.41;4990863;28;46095;-73
2021/09/11 18:38:47;;;;;;;;;3.00;3.00;;;;;22.58;44.80;101362.13;4974101;28;45441;-74
2021/09/11 18:41:12;;;;;;;;;3.00;2.75;;;;;22.55;44.89;101364.84;5002293;28;45489;-71
2021/09/11 18:43:38;;;;;;;;;3.25;3.00;;;;;22.52;44.81;101362.25;4967527;28;49436;-68
2021/09/11 18:46:03;;;;;;;;;3.00;3.00;;;;;22.47;44.82;101361.44;4988911;28;47478;-71
2021/09/11 18:48:29;;;;;;;;;6.50;4.00;;;;;22.43;44.62;101365.03;4983315;28;51660;-74
2021/09/11 18:50:54;;;;;;;;;4.50;2.50;;;;;22.39;44.82;101365.97;4984346;28;49914;-70
2021/09/11 18:53:19;;;;;;;;;4.00;3.00;;;;;22.34;44.68;101364.28;4973278;28;48905;-75
2021/09/11 18:55:51;;;;;;;;;3.75;3.00;;;;;22.33;44.86;101374.84;4973544;28;51621;-77
2021/09/11 18:58:16;;;;;;;;;4.50;2.25;;;;;22.29;45.09;101376.66;4976769;28;45725;-80
2021/09/11 19:00:42;;;;;;;;;3.00;3.00;;;;;22.25;44.65;101374.94;4977296;28;46324;-73
2021/09/11 19:03:07;;;;;;;;;3.25;3.00;;;;;22.19;44.81;101378.56;4957342;28;45483;-73
2021/09/11 19:05:33;;;;;;;;;5.00;4.00;;;;;22.12;44.90;101376.91;4987837;28;47067;-77
2021/09/11 19:07:58;;;;;;;;;5.25;3.25;;;;;22.04;44.86;101378.78;4979856;28;45527;-76
2021/09/11 19:10:23;;;;;;;;;4.25;3.00;;;;;22.06;44.80;101386.69;4968745;28;48001;-75
2021/09/11 19:12:50;;;;;;;;;4.50;4.00;;;;;22.02;45.05;101388.50;4984592;28;45662;-72
2021/09/11 19:15:17;;;;;;;;;4.00;4.00;;;;;22.00;45.39;101396.47;4978383;28;46460;-73
2021/09/11 19:17:43;;;;;;;;;3.00;3.00;;;;;21.97;44.74;101398.28;4969453;28;45684;-74
2021/09/11 19:20:10;;;;;;;;;5.50;5.25;;;;;21.96;44.85;101397.41;4961765;28;45389;-72
2021/09/11 19:22:35;;;;;;;;;5.00;3.75;;;;;21.82;44.62;101379.06;4987871;28;45529;-78
2021/09/11 19:25:00;;;;;;;;;4.00;3.00;;;;;21.88;44.74;101401.06;4946393;28;46129;-86
2021/09/11 19:27:26;;;;;;;;;4.50;4.00;;;;;21.89;45.02;101402.81;4964774;28;45454;-74
2021/09/11 19:29:51;;;;;;;;;4.00;4.00;;;;;21.86;45.11;101403.72;4970325;28;54628;-73
2021/09/11 19:32:16;;;;;;;;;4.00;4.00;;;;;21.82;45.09;101394.94;4978698;28;45582;-74
2021/09/11 19:34:42;;;;;;;;;4.00;4.00;;;;;21.79;45.07;101394.97;4948543;28;54089;-73
2021/09/11 19:37:07;;;;;;;;;6.75;5.75;;;;;21.77;45.06;101403.81;4963140;28;54082;-74
2021/09/11 19:39:34;;;;;;;;;5.25;5.00;;;;;21.72;45.13;101403.88;4974601;28;45464;-74
2021/09/11 19:41:59;;;;;;;;;7.50;5.00;;;;;21.73;45.01;101408.25;4979295;28;45712;-68
2021/09/11 19:44:25;;;;;;;;;7.50;4.00;;;;;21.69;45.27;101395.97;4977347;28;45704;-71
2021/09/11 19:46:50;;;;;;;;;7.00;5.00;;;;;21.68;45.22;101408.31;4980358;28;46600;-71
2021/09/11 19:49:16;;;;;;;;;11.75;5.25;;;;;21.67;45.06;101403.06;4979388;28;45484;-71
2021/09/11 19:51:41;;;;;;;;;5.50;4.00;;;;;21.66;45.51;101412.75;4943211;28;45476;-69
2021/09/11 19:54:07;;;;;;;;;3.00;3.00;;;;;21.64;45.02;101414.53;4975768;28;45952;-73
2021/09/11 19:56:33;;;;;;;;;4.25;2.75;;;;;21.54;44.69;101402.28;4956949;28;45479;-70
2021/09/11 19:59:01;;;;;;;;;4.00;4.00;;;;;21.58;45.08;101406.66;4974479;28;45243;-69
2021/09/11 20:01:26;;;;;;;;;4.00;3.50;;;;;21.56;45.13;101408.47;4985367;28;45525;-69
2021/09/11 20:03:52;;;;;;;;;5.25;4.00;;;;;21.28;45.01;101365.50;4956447;28;51698;-70
2021/09/11 20:06:17;;;;;;;;;5.00;3.75;;;;;21.50;44.82;101405.84;4968572;28;50805;-78
2021/09/11 20:08:43;;;;;;;;;5.75;4.00;;;;;21.49;44.69;101402.31;4973812;28;45762;-73
2021/09/11 20:11:08;;;;;;;;;4.25;3.50;;;;;21.50;44.66;101406.72;4976759;28;45575;-77
2021/09/11 20:13:35;;;;;;;;;3.50;3.50;;;;;21.45;44.95;101397.09;4975163;28;54670;-79
2021/09/11 20:16:00;;;;;;;;;5.75;4.00;;;;;21.48;44.86;101412.91;4952945;28;45596;-73
2021/09/11 20:18:25;;;;;;;;;5.50;3.75;;;;;21.50;45.14;101417.31;4944951;28;46350;-73
2021/09/11 20:20:51;;;;;;;;;6.00;3.25;;;;;21.49;44.91;101417.31;4936030;28;45376;-73
2021/09/11 20:23:16;;;;;;;;;7.50;4.50;;;;;21.47;45.01;101414.69;4935263;28;45412;-71
2021/09/11 20:25:42;;;;;;;;;3.00;3.00;;;;;21.47;44.65;101427.03;4934369;28;60121;-69
2021/09/11 23:30:12;;;;;;;;;8.00;6.25;;;;;18.45;52.35;101435.94;5110045;27;46634;-71
2021/09/11 23:32:37;;;;;;;;;9.75;7.75;;;;;18.58;52.77;101438.59;5093413;27;45256;-72
2021/09/11 23:35:03;;;;;;;;;13.25;10.25;;;;;18.76;52.21;101440.38;5091518;27;49912;-72
2021/09/11 23:37:28;;;;;;;;;14.25;12.00;;;;;18.92;52.87;101436.94;5094552;27;45204;-74
2021/09/11 23:39:54;;;;;;;;;19.25;15.25;;;;;19.10;52.12;101437.81;5106133;27;47419;-73
2021/09/11 23:42:19;;;;;;;;;16.75;14.50;;;;;19.24;52.30;101436.03;5079327;27;54743;-71
2021/09/11 23:44:44;;;;;;;;;16.50;14.25;;;;;19.38;51.96;101429.91;5094965;27;45177;-72
2021/09/11 23:47:10;;;;;;;;;16.25;13.75;;;;;19.53;52.18;101429.00;5093625;27;50539;-71
2021/09/11 23:49:35;;;;;;;;;17.50;15.25;;;;;19.65;52.16;101428.97;5094425;27;45220;-71
2021/09/11 23:52:01;;;;;;;;;18.25;14.00;;;;;19.76;52.21;101431.59;5092999;27;48507;-71
2021/09/11 23:54:26;;;;;;;;;15.25;13.50;;;;;19.84;51.52;101432.47;5093444;27;49173;-70
2021/09/11 23:56:52;;;;;;;;;15.75;14.50;;;;;19.92;51.96;101432.44;5094132;27;45977;-71
2021/09/11 23:59:17;;;;;;;;;15.00;13.00;;;;;19.97;52.07;101423.59;5093856;27;45993;-71
